sensor_id;sensor_type;location;lat;lon;timestamp;P1;durP1;ratioP1;P2;durP2;ratioP2
37593;SDS011;23441;50.856;6.076;2023-10-08T00:02:23;9.05;;;4.10;;
37593;SDS011;23441;50.856;6.076;2023-10-08T00:04:52;11.57;;;4.28;;
37593;SDS011;23441;50.856;6.076;2023-10-08T00:07:19;7.53;;;4.40;;
37593;SDS011;23441;50.856;6.076;2023-10-08T00:09:49;6.93;;;4.10;;
37593;SDS011;23441;50.856;6.076;2023-10-08T00:12:19;8.38;;;4.50;;
37593;SDS011;23441;50.856;6.076;2023-10-08T00:14:45;10.75;;;4.95;;
37593;SDS011;23441;50.856;6.076;2023-10-08T00:17:15;10.95;;;4.28;;
37593;SDS011;23441;50.856;6.076;2023-10-08T00:19:42;7.93;;;4.50;;
37593;SDS011;23441;50.856;6.076;2023-10-08T00:22:11;7.18;;;3.83;;
37593;SDS011;23441;50.856;6.076;2023-10-08T00:24:38;8.52;;;3.97;;
37593;SDS011;23441;50.856;6.076;2023-10-08T00:27:07;9.10;;;4.75;;
37593;SDS011;23441;50.856;6.076;2023-10-08T00:29:34;9.15;;;4.40;;
37593;SDS011;23441;50.856;6.076;2023-10-08T00:32:00;8.45;;;4.13;;
37593;SDS011;23441;50.856;6.076;2023-10-08T00:34:36;7.80;;;4.20;;
37593;SDS011;23441;50.856;6.076;2023-10-08T00:37:09;6.80;;;3.90;;
37593;SDS011;23441;50.856;6.076;2023-10-08T00:39:36;7.50;;;4.20;;
37593;SDS011;23441;50.856;6.076;2023-10-08T00:42:03;6.05;;;4.28;;
37593;SDS011;23441;50.856;6.076;2023-10-08T00:44:33;9.25;;;4.28;;
37593;SDS011;23441;50.856;6.076;2023-10-08T00:47:28;6.05;;;3.90;;
37593;SDS011;23441;50.856;6.076;2023-10-08T00:49:53;7.10;;;4.30;;
37593;SDS011;23441;50.856;6.076;2023-10-08T00:52:28;8.25;;;3.95;;
37593;SDS011;23441;50.856;6.076;2023-10-08T00:54:55;9.13;;;4.22;;
37593;SDS011;23441;50.856;6.076;2023-10-08T00:57:21;8.07;;;4.97;;
37593;SDS011;23441;50.856;6.076;2023-10-08T00:59:50;9.15;;;4.10;;
37593;SDS011;23441;50.856;6.076;2023-10-08T01:02:20;8.50;;;4.13;;
37593;SDS011;23441;50.856;6.076;2023-10-08T01:04:51;6.78;;;4.45;;
37593;SDS011;23441;50.856;6.076;2023-10-08T01:07:19;6.55;;;3.80;;
37593;SDS011;23441;50.856;6.076;2023-10-08T01:09:45;11.35;;;4.60;;
37593;SDS011;23441;50.856;6.076;2023-10-08T01:12:26;9.13;;;4.80;;
37593;SDS011;23441;50.856;6.076;2023-10-08T01:14:59;9.07;;;4.50;;
37593;SDS011;23441;50.856;6.076;2023-10-08T01:17:43;9.45;;;4.47;;
37593;SDS011;23441;50.856;6.076;2023-10-08T01:20:26;9.63;;;5.05;;
37593;SDS011;23441;50.856;6.076;2023-10-08T01:25:29;10.43;;;4.65;;
37593;SDS011;23441;50.856;6.076;2023-10-08T01:27:58;10.98;;;4.35;;
37593;SDS011;23441;50.856;6.076;2023-10-08T01:30:33;5.78;;;3.58;;
37593;SDS011;23441;50.856;6.076;2023-10-08T01:33:06;8.43;;;4.03;;
37593;SDS011;23441;50.856;6.076;2023-10-08T01:35:37;7.35;;;4.10;;
37593;SDS011;23441;50.856;6.076;2023-10-08T01:38:03;10.98;;;4.32;;
37593;SDS011;23441;50.856;6.076;2023-10-08T01:40:29;9.05;;;4.57;;
37593;SDS011;23441;50.856;6.076;2023-10-08T01:42:55;10.20;;;4.25;;
37593;SDS011;23441;50.856;6.076;2023-10-08T01:45:30;7.63;;;4.28;;
37593;SDS011;23441;50.856;6.076;2023-10-08T01:47:57;9.15;;;3.80;;
37593;SDS011;23441;50.856;6.076;2023-10-08T01:50:23;11.18;;;4.57;;
37593;SDS011;23441;50.856;6.076;2023-10-08T01:52:54;10.68;;;4.15;;
37593;SDS011;23441;50.856;6.076;2023-10-08T01:55:20;7.57;;;4.00;;
37593;SDS011;23441;50.856;6.076;2023-10-08T01:57:48;9.20;;;4.18;;
37593;SDS011;23441;50.856;6.076;2023-10-08T02:00:16;8.57;;;4.03;;
37593;SDS011;23441;50.856;6.076;2023-10-08T02:02:49;7.53;;;4.03;;
37593;SDS011;23441;50.856;6.076;2023-10-08T02:05:15;10.13;;;4.60;;
37593;SDS011;23441;50.856;6.076;2023-10-08T02:07:44;7.20;;;4.00;;
37593;SDS011;23441;50.856;6.076;2023-10-08T02:10:10;9.00;;;4.43;;
37593;SDS011;23441;50.856;6.076;2023-10-08T02:12:37;11.98;;;4.47;;
37593;SDS011;23441;50.856;6.076;2023-10-08T02:15:03;10.63;;;4.28;;
37593;SDS011;23441;50.856;6.076;2023-10-08T02:17:29;5.35;;;3.65;;
37593;SDS011;23441;50.856;6.076;2023-10-08T02:19:55;11.02;;;4.20;;
37593;SDS011;23441;50.856;6.076;2023-10-08T02:22:20;7.97;;;4.30;;
37593;SDS011;23441;50.856;6.076;2023-10-08T02:24:46;9.25;;;4.53;;
37593;SDS011;23441;50.856;6.076;2023-10-08T02:27:13;11.35;;;4.72;;
37593;SDS011;23441;50.856;6.076;2023-10-08T02:29:40;8.95;;;3.97;;
37593;SDS011;23441;50.856;6.076;2023-10-08T02:32:07;11.65;;;4.15;;
37593;SDS011;23441;50.856;6.076;2023-10-08T02:34:32;9.32;;;4.57;;
37593;SDS011;23441;50.856;6.076;2023-10-08T02:36:58;7.97;;;4.10;;
37593;SDS011;23441;50.856;6.076;2023-10-08T02:39:24;8.30;;;3.92;;
37593;SDS011;23441;50.856;6.076;2023-10-08T02:41:54;6.75;;;4.10;;
37593;SDS011;23441;50.856;6.076;2023-10-08T02:44:23;10.52;;;4.30;;
37593;SDS011;23441;50.856;6.076;2023-10-08T02:46:49;7.32;;;4.00;;
37593;SDS011;23441;50.856;6.076;2023-10-08T02:49:17;10.73;;;4.05;;
37593;SDS011;23441;50.856;6.076;2023-10-08T02:51:48;8.00;;;4.13;;
37593;SDS011;23441;50.856;6.076;2023-10-08T02:54:15;7.90;;;3.90;;
37593;SDS011;23441;50.856;6.076;2023-10-08T02:56:50;7.43;;;4.18;;
37593;SDS011;23441;50.856;6.076;2023-10-08T02:59:20;12.77;;;4.15;;
37593;SDS011;23441;50.856;6.076;2023-10-08T03:01:47;8.23;;;4.03;;
37593;SDS011;23441;50.856;6.076;2023-10-08T03:04:22;8.27;;;3.92;;
37593;SDS011;23441;50.856;6.076;2023-10-08T03:06:49;10.88;;;4.88;;
37593;SDS011;23441;50.856;6.076;2023-10-08T03:09:18;10.57;;;4.28;;
37593;SDS011;23441;50.856;6.076;2023-10-08T03:11:56;11.38;;;4.78;;
37593;SDS011;23441;50.856;6.076;2023-10-08T03:14:23;7.30;;;4.20;;
37593;SDS011;23441;50.856;6.076;2023-10-08T03:16:52;10.05;;;5.10;;
37593;SDS011;23441;50.856;6.076;2023-10-08T03:19:23;8.40;;;4.07;;
37593;SDS011;23441;50.856;6.076;2023-10-08T03:21:50;10.30;;;4.47;;
37593;SDS011;23441;50.856;6.076;2023-10-08T03:24:29;9.57;;;4.25;;
37593;SDS011;23441;50.856;6.076;2023-10-08T03:26:57;7.78;;;3.78;;
37593;SDS011;23441;50.856;6.076;2023-10-08T03:29:46;11.02;;;4.38;;
37593;SDS011;23441;50.856;6.076;2023-10-08T03:32:12;7.97;;;4.57;;
37593;SDS011;23441;50.856;6.076;2023-10-08T03:34:45;7.93;;;4.10;;
37593;SDS011;23441;50.856;6.076;2023-10-08T03:37:13;8.70;;;4.30;;
37593;SDS011;23441;50.856;6.076;2023-10-08T03:39:46;12.77;;;5.35;;
37593;SDS011;23441;50.856;6.076;2023-10-08T03:42:22;7.15;;;3.80;;
37593;SDS011;23441;50.856;6.076;2023-10-08T03:44:51;9.13;;;4.72;;
37593;SDS011;23441;50.856;6.076;2023-10-08T03:47:19;10.20;;;4.57;;
37593;SDS011;23441;50.856;6.076;2023-10-08T03:49:47;13.65;;;4.63;;
37593;SDS011;23441;50.856;6.076;2023-10-08T03:52:16;11.10;;;4.43;;
37593;SDS011;23441;50.856;6.076;2023-10-08T03:54:48;10.52;;;4.47;;
37593;SDS011;23441;50.856;6.076;2023-10-08T03:57:20;9.77;;;4.53;;
37593;SDS011;23441;50.856;6.076;2023-10-08T04:00:06;8.43;;;4.53;;
37593;SDS011;23441;50.856;6.076;2023-10-08T04:02:43;8.63;;;4.68;;
37593;SDS011;23441;50.856;6.076;2023-10-08T04:05:32;9.02;;;4.45;;
37593;SDS011;23441;50.856;6.076;2023-10-08T04:08:08;8.80;;;4.35;;
37593;SDS011;23441;50.856;6.076;2023-10-08T04:11:04;9.77;;;3.92;;
37593;SDS011;23441;50.856;6.076;2023-10-08T04:13:33;9.13;;;4.03;;
37593;SDS011;23441;50.856;6.076;2023-10-08T04:16:04;10.88;;;4.30;;
37593;SDS011;23441;50.856;6.076;2023-10-08T04:18:30;7.93;;;3.53;;
37593;SDS011;23441;50.856;6.076;2023-10-08T04:20:55;9.57;;;4.10;;
37593;SDS011;23441;50.856;6.076;2023-10-08T04:23:30;8.32;;;4.00;;
37593;SDS011;23441;50.856;6.076;2023-10-08T04:25:56;8.32;;;4.22;;
37593;SDS011;23441;50.856;6.076;2023-10-08T04:28:22;8.02;;;4.28;;
37593;SDS011;23441;50.856;6.076;2023-10-08T04:30:53;9.98;;;4.60;;
37593;SDS011;23441;50.856;6.076;2023-10-08T04:33:25;10.18;;;4.15;;
37593;SDS011;23441;50.856;6.076;2023-10-08T04:35:52;9.60;;;4.13;;
37593;SDS011;23441;50.856;6.076;2023-10-08T04:38:21;8.95;;;4.32;;
37593;SDS011;23441;50.856;6.076;2023-10-08T04:40:48;7.10;;;4.75;;
37593;SDS011;23441;50.856;6.076;2023-10-08T04:43:23;9.60;;;4.55;;
37593;SDS011;23441;50.856;6.076;2023-10-08T04:45:56;8.73;;;4.88;;
37593;SDS011;23441;50.856;6.076;2023-10-08T04:48:23;9.73;;;4.45;;
37593;SDS011;23441;50.856;6.076;2023-10-08T04:50:56;10.27;;;5.28;;
37593;SDS011;23441;50.856;6.076;2023-10-08T04:56:02;10.52;;;4.30;;
37593;SDS011;23441;50.856;6.076;2023-10-08T04:58:38;8.68;;;4.05;;
37593;SDS011;23441;50.856;6.076;2023-10-08T05:01:14;10.35;;;4.70;;
37593;SDS011;23441;50.856;6.076;2023-10-08T05:03:53;6.85;;;4.00;;
37593;SDS011;23441;50.856;6.076;2023-10-08T05:06:26;11.10;;;4.72;;
37593;SDS011;23441;50.856;6.076;2023-10-08T05:09:12;7.78;;;4.22;;
37593;SDS011;23441;50.856;6.076;2023-10-08T05:11:44;7.25;;;3.90;;
37593;SDS011;23441;50.856;6.076;2023-10-08T05:14:41;9.05;;;4.65;;
37593;SDS011;23441;50.856;6.076;2023-10-08T05:17:21;8.63;;;4.50;;
37593;SDS011;23441;50.856;6.076;2023-10-08T05:19:46;8.82;;;4.35;;
37593;SDS011;23441;50.856;6.076;2023-10-08T05:22:31;8.30;;;4.15;;
37593;SDS011;23441;50.856;6.076;2023-10-08T05:24:58;9.88;;;4.25;;
37593;SDS011;23441;50.856;6.076;2023-10-08T05:27:40;8.65;;;4.80;;
37593;SDS011;23441;50.856;6.076;2023-10-08T05:30:12;10.63;;;4.70;;
37593;SDS011;23441;50.856;6.076;2023-10-08T05:32:59;9.25;;;4.95;;
37593;SDS011;23441;50.856;6.076;2023-10-08T05:35:28;9.90;;;4.65;;
37593;SDS011;23441;50.856;6.076;2023-10-08T05:38:15;10.82;;;4.55;;
37593;SDS011;23441;50.856;6.076;2023-10-08T05:40:59;8.80;;;4.43;;
37593;SDS011;23441;50.856;6.076;2023-10-08T05:46:02;11.65;;;4.45;;
37593;SDS011;23441;50.856;6.076;2023-10-08T05:48:48;8.43;;;4.38;;
37593;SDS011;23441;50.856;6.076;2023-10-08T05:51:41;9.38;;;5.22;;
37593;SDS011;23441;50.856;6.076;2023-10-08T05:54:30;12.52;;;5.20;;
37593;SDS011;23441;50.856;6.076;2023-10-08T05:56:58;10.25;;;4.97;;
37593;SDS011;23441;50.856;6.076;2023-10-08T05:59:40;11.20;;;5.30;;
37593;SDS011;23441;50.856;6.076;2023-10-08T06:04:58;11.25;;;5.88;;
37593;SDS011;23441;50.856;6.076;2023-10-08T06:07:58;11.15;;;4.75;;
37593;SDS011;23441;50.856;6.076;2023-10-08T06:10:36;9.50;;;4.45;;
37593;SDS011;23441;50.856;6.076;2023-10-08T06:13:05;10.25;;;5.28;;
37593;SDS011;23441;50.856;6.076;2023-10-08T06:15:44;11.18;;;4.80;;
37593;SDS011;23441;50.856;6.076;2023-10-08T06:18:35;10.48;;;5.30;;
37593;SDS011;23441;50.856;6.076;2023-10-08T06:21:02;9.88;;;4.55;;
37593;SDS011;23441;50.856;6.076;2023-10-08T06:23:37;11.77;;;4.40;;
37593;SDS011;23441;50.856;6.076;2023-10-08T06:26:04;7.93;;;4.93;;
37593;SDS011;23441;50.856;6.076;2023-10-08T06:28:39;10.90;;;4.68;;
37593;SDS011;23441;50.856;6.076;2023-10-08T06:31:07;10.30;;;4.55;;
37593;SDS011;23441;50.856;6.076;2023-10-08T06:33:40;11.95;;;5.45;;
37593;SDS011;23441;50.856;6.076;2023-10-08T06:36:06;10.43;;;4.95;;
37593;SDS011;23441;50.856;6.076;2023-10-08T06:38:44;10.43;;;5.07;;
37593;SDS011;23441;50.856;6.076;2023-10-08T06:41:13;9.02;;;5.25;;
37593;SDS011;23441;50.856;6.076;2023-10-08T06:43:40;13.07;;;5.00;;
37593;SDS011;23441;50.856;6.076;2023-10-08T06:46:28;10.52;;;5.00;;
37593;SDS011;23441;50.856;6.076;2023-10-08T06:49:00;10.25;;;4.80;;
37593;SDS011;23441;50.856;6.076;2023-10-08T06:51:27;15.13;;;5.13;;
37593;SDS011;23441;50.856;6.076;2023-10-08T06:53:55;12.27;;;5.60;;
37593;SDS011;23441;50.856;6.076;2023-10-08T06:56:25;11.23;;;5.03;;
37593;SDS011;23441;50.856;6.076;2023-10-08T06:58:50;11.77;;;5.78;;
37593;SDS011;23441;50.856;6.076;2023-10-08T07:01:19;7.45;;;4.63;;
37593;SDS011;23441;50.856;6.076;2023-10-08T07:03:53;12.70;;;5.57;;
37593;SDS011;23441;50.856;6.076;2023-10-08T07:06:28;8.98;;;4.72;;
37593;SDS011;23441;50.856;6.076;2023-10-08T07:09:00;10.25;;;4.88;;
37593;SDS011;23441;50.856;6.076;2023-10-08T07:11:31;14.23;;;5.50;;
37593;SDS011;23441;50.856;6.076;2023-10-08T07:14:03;12.25;;;5.28;;
37593;SDS011;23441;50.856;6.076;2023-10-08T07:16:29;8.95;;;4.63;;
37593;SDS011;23441;50.856;6.076;2023-10-08T07:18:56;8.57;;;4.80;;
37593;SDS011;23441;50.856;6.076;2023-10-08T07:21:41;8.98;;;5.30;;
37593;SDS011;23441;50.856;6.076;2023-10-08T07:24:13;10.10;;;4.95;;
37593;SDS011;23441;50.856;6.076;2023-10-08T07:26:46;12.95;;;4.63;;
37593;SDS011;23441;50.856;6.076;2023-10-08T07:29:13;10.40;;;5.35;;
37593;SDS011;23441;50.856;6.076;2023-10-08T07:31:42;9.85;;;5.10;;
37593;SDS011;23441;50.856;6.076;2023-10-08T07:34:14;11.48;;;4.65;;
37593;SDS011;23441;50.856;6.076;2023-10-08T07:36:46;10.85;;;5.10;;
37593;SDS011;23441;50.856;6.076;2023-10-08T07:39:14;12.00;;;5.28;;
37593;SDS011;23441;50.856;6.076;2023-10-08T07:42:05;9.38;;;4.78;;
37593;SDS011;23441;50.856;6.076;2023-10-08T07:44:31;10.93;;;5.00;;
37593;SDS011;23441;50.856;6.076;2023-10-08T07:46:57;12.30;;;4.88;;
37593;SDS011;23441;50.856;6.076;2023-10-08T07:49:24;9.25;;;4.95;;
37593;SDS011;23441;50.856;6.076;2023-10-08T07:51:56;9.70;;;4.80;;
37593;SDS011;23441;50.856;6.076;2023-10-08T07:54:23;12.82;;;5.38;;
37593;SDS011;23441;50.856;6.076;2023-10-08T07:56:52;10.00;;;4.75;;
37593;SDS011;23441;50.856;6.076;2023-10-08T07:59:45;13.40;;;5.43;;
37593;SDS011;23441;50.856;6.076;2023-10-08T08:02:23;10.50;;;4.90;;
37593;SDS011;23441;50.856;6.076;2023-10-08T08:04:52;10.48;;;4.57;;
37593;SDS011;23441;50.856;6.076;2023-10-08T08:07:19;15.15;;;5.38;;
37593;SDS011;23441;50.856;6.076;2023-10-08T08:09:46;13.20;;;5.70;;
37593;SDS011;23441;50.856;6.076;2023-10-08T08:12:25;9.23;;;5.03;;
37593;SDS011;23441;50.856;6.076;2023-10-08T08:14:53;13.48;;;5.18;;
37593;SDS011;23441;50.856;6.076;2023-10-08T08:17:19;10.88;;;5.03;;
37593;SDS011;23441;50.856;6.076;2023-10-08T08:19:47;13.82;;;5.90;;
37593;SDS011;23441;50.856;6.076;2023-10-08T08:22:14;19.33;;;5.30;;
37593;SDS011;23441;50.856;6.076;2023-10-08T08:24:49;11.73;;;5.75;;
37593;SDS011;23441;50.856;6.076;2023-10-08T08:27:20;11.48;;;5.82;;
37593;SDS011;23441;50.856;6.076;2023-10-08T08:29:52;16.30;;;5.90;;
37593;SDS011;23441;50.856;6.076;2023-10-08T08:32:21;9.70;;;5.25;;
37593;SDS011;23441;50.856;6.076;2023-10-08T08:34:48;14.63;;;6.03;;
37593;SDS011;23441;50.856;6.076;2023-10-08T08:37:16;16.98;;;6.28;;
37593;SDS011;23441;50.856;6.076;2023-10-08T08:39:42;15.02;;;6.40;;
37593;SDS011;23441;50.856;6.076;2023-10-08T08:42:07;13.85;;;6.30;;
37593;SDS011;23441;50.856;6.076;2023-10-08T08:44:37;16.58;;;6.10;;
37593;SDS011;23441;50.856;6.076;2023-10-08T08:47:10;17.40;;;5.80;;
37593;SDS011;23441;50.856;6.076;2023-10-08T08:49:39;17.73;;;6.65;;
37593;SDS011;23441;50.856;6.076;2023-10-08T08:52:07;12.90;;;5.65;;
37593;SDS011;23441;50.856;6.076;2023-10-08T08:54:34;13.77;;;6.28;;
37593;SDS011;23441;50.856;6.076;2023-10-08T08:57:02;12.25;;;5.88;;
37593;SDS011;23441;50.856;6.076;2023-10-08T08:59:35;14.93;;;6.38;;
37593;SDS011;23441;50.856;6.076;2023-10-08T09:02:01;15.50;;;5.95;;
37593;SDS011;23441;50.856;6.076;2023-10-08T09:04:32;12.45;;;5.70;;
37593;SDS011;23441;50.856;6.076;2023-10-08T09:07:01;13.02;;;5.97;;
37593;SDS011;23441;50.856;6.076;2023-10-08T09:09:33;13.38;;;6.15;;
37593;SDS011;23441;50.856;6.076;2023-10-08T09:12:00;20.63;;;6.72;;
37593;SDS011;23441;50.856;6.076;2023-10-08T09:14:26;13.30;;;6.80;;
37593;SDS011;23441;50.856;6.076;2023-10-08T09:16:57;17.95;;;7.30;;
37593;SDS011;23441;50.856;6.076;2023-10-08T09:19:24;16.48;;;6.35;;
37593;SDS011;23441;50.856;6.076;2023-10-08T09:22:00;14.98;;;7.03;;
37593;SDS011;23441;50.856;6.076;2023-10-08T09:24:30;16.85;;;7.18;;
37593;SDS011;23441;50.856;6.076;2023-10-08T09:26:58;15.82;;;7.43;;
37593;SDS011;23441;50.856;6.076;2023-10-08T09:29:24;17.23;;;6.82;;
37593;SDS011;23441;50.856;6.076;2023-10-08T09:31:58;17.42;;;7.57;;
37593;SDS011;23441;50.856;6.076;2023-10-08T09:34:31;14.82;;;6.80;;
37593;SDS011;23441;50.856;6.076;2023-10-08T09:36:57;13.52;;;6.60;;
37593;SDS011;23441;50.856;6.076;2023-10-08T09:39:28;15.43;;;6.70;;
37593;SDS011;23441;50.856;6.076;2023-10-08T09:41:59;12.43;;;7.35;;
37593;SDS011;23441;50.856;6.076;2023-10-08T09:44:27;20.23;;;7.22;;
37593;SDS011;23441;50.856;6.076;2023-10-08T09:46:57;16.65;;;7.15;;
37593;SDS011;23441;50.856;6.076;2023-10-08T09:49:33;18.25;;;7.18;;
37593;SDS011;23441;50.856;6.076;2023-10-08T09:52:08;13.70;;;6.55;;
37593;SDS011;23441;50.856;6.076;2023-10-08T09:57:35;15.00;;;7.47;;
37593;SDS011;23441;50.856;6.076;2023-10-08T10:00:01;16.02;;;6.85;;
37593;SDS011;23441;50.856;6.076;2023-10-08T10:02:30;14.15;;;7.07;;
37593;SDS011;23441;50.856;6.076;2023-10-08T10:04:57;16.48;;;7.25;;
37593;SDS011;23441;50.856;6.076;2023-10-08T10:07:25;19.73;;;7.32;;
37593;SDS011;23441;50.856;6.076;2023-10-08T10:09:53;13.88;;;6.80;;
37593;SDS011;23441;50.856;6.076;2023-10-08T10:12:20;16.35;;;7.60;;
37593;SDS011;23441;50.856;6.076;2023-10-08T10:14:50;13.57;;;6.80;;
37593;SDS011;23441;50.856;6.076;2023-10-08T10:17:20;16.17;;;7.30;;
37593;SDS011;23441;50.856;6.076;2023-10-08T10:20:05;13.77;;;6.93;;
37593;SDS011;23441;50.856;6.076;2023-10-08T10:22:38;15.93;;;7.20;;
37593;SDS011;23441;50.856;6.076;2023-10-08T10:25:04;14.35;;;7.22;;
37593;SDS011;23441;50.856;6.076;2023-10-08T10:27:42;18.02;;;7.38;;
37593;SDS011;23441;50.856;6.076;2023-10-08T10:30:31;15.10;;;7.15;;
37593;SDS011;23441;50.856;6.076;2023-10-08T10:32:59;20.70;;;7.93;;
37593;SDS011;23441;50.856;6.076;2023-10-08T10:35:26;16.20;;;7.13;;
37593;SDS011;23441;50.856;6.076;2023-10-08T10:37:52;16.50;;;8.07;;
37593;SDS011;23441;50.856;6.076;2023-10-08T10:40:23;14.68;;;7.45;;
37593;SDS011;23441;50.856;6.076;2023-10-08T10:43:05;15.10;;;7.70;;
37593;SDS011;23441;50.856;6.076;2023-10-08T10:45:40;17.23;;;8.15;;
37593;SDS011;23441;50.856;6.076;2023-10-08T10:48:09;16.95;;;7.53;;
37593;SDS011;23441;50.856;6.076;2023-10-08T10:50:40;13.75;;;7.35;;
37593;SDS011;23441;50.856;6.076;2023-10-08T10:53:21;16.10;;;7.38;;
37593;SDS011;23441;50.856;6.076;2023-10-08T10:55:47;18.13;;;7.32;;
37593;SDS011;23441;50.856;6.076;2023-10-08T10:58:25;19.50;;;7.47;;
37593;SDS011;23441;50.856;6.076;2023-10-08T11:00:51;24.98;;;8.40;;
37593;SDS011;23441;50.856;6.076;2023-10-08T11:03:23;15.63;;;7.53;;
37593;SDS011;23441;50.856;6.076;2023-10-08T11:05:58;14.95;;;7.03;;
37593;SDS011;23441;50.856;6.076;2023-10-08T11:08:30;15.40;;;7.28;;
37593;SDS011;23441;50.856;6.076;2023-10-08T11:10:59;19.63;;;7.38;;
37593;SDS011;23441;50.856;6.076;2023-10-08T11:13:30;18.05;;;7.32;;
37593;SDS011;23441;50.856;6.076;2023-10-08T11:16:06;18.05;;;7.85;;
37593;SDS011;23441;50.856;6.076;2023-10-08T11:18:34;14.80;;;6.88;;
37593;SDS011;23441;50.856;6.076;2023-10-08T11:21:07;14.35;;;7.63;;
37593;SDS011;23441;50.856;6.076;2023-10-08T11:23:54;19.02;;;6.80;;
37593;SDS011;23441;50.856;6.076;2023-10-08T11:26:22;18.77;;;6.70;;
37593;SDS011;23441;50.856;6.076;2023-10-08T11:28:57;14.40;;;6.88;;
37593;SDS011;23441;50.856;6.076;2023-10-08T11:31:26;20.48;;;6.55;;
37593;SDS011;23441;50.856;6.076;2023-10-08T11:33:58;21.45;;;7.32;;
37593;SDS011;23441;50.856;6.076;2023-10-08T11:36:26;15.85;;;6.28;;
37593;SDS011;23441;50.856;6.076;2023-10-08T11:38:57;14.88;;;6.88;;
37593;SDS011;23441;50.856;6.076;2023-10-08T11:41:36;16.30;;;6.60;;
37593;SDS011;23441;50.856;6.076;2023-10-08T11:44:15;16.67;;;5.97;;
37593;SDS011;23441;50.856;6.076;2023-10-08T11:46:45;17.75;;;7.60;;
37593;SDS011;23441;50.856;6.076;2023-10-08T11:49:16;16.08;;;6.22;;
37593;SDS011;23441;50.856;6.076;2023-10-08T11:51:50;20.20;;;6.57;;
37593;SDS011;23441;50.856;6.076;2023-10-08T11:54:17;17.27;;;6.90;;
37593;SDS011;23441;50.856;6.076;2023-10-08T11:56:45;17.75;;;6.72;;
37593;SDS011;23441;50.856;6.076;2023-10-08T11:59:12;14.00;;;5.88;;
37593;SDS011;23441;50.856;6.076;2023-10-08T12:01:38;17.35;;;6.40;;
37593;SDS011;23441;50.856;6.076;2023-10-08T12:04:07;16.02;;;7.28;;
37593;SDS011;23441;50.856;6.076;2023-10-08T12:06:40;15.80;;;6.60;;
37593;SDS011;23441;50.856;6.076;2023-10-08T12:09:17;17.70;;;7.20;;
37593;SDS011;23441;50.856;6.076;2023-10-08T12:11:43;19.50;;;7.00;;
37593;SDS011;23441;50.856;6.076;2023-10-08T12:14:09;18.42;;;6.72;;
37593;SDS011;23441;50.856;6.076;2023-10-08T12:16:35;14.25;;;6.53;;
37593;SDS011;23441;50.856;6.076;2023-10-08T12:19:02;16.55;;;7.38;;
37593;SDS011;23441;50.856;6.076;2023-10-08T12:21:40;16.80;;;6.63;;
37593;SDS011;23441;50.856;6.076;2023-10-08T12:24:06;12.60;;;6.68;;
37593;SDS011;23441;50.856;6.076;2023-10-08T12:26:35;18.17;;;6.82;;
37593;SDS011;23441;50.856;6.076;2023-10-08T12:29:01;18.55;;;7.15;;
37593;SDS011;23441;50.856;6.076;2023-10-08T12:31:27;13.52;;;6.47;;
37593;SDS011;23441;50.856;6.076;2023-10-08T12:33:54;17.38;;;6.15;;
37593;SDS011;23441;50.856;6.076;2023-10-08T12:36:22;15.85;;;6.13;;
37593;SDS011;23441;50.856;6.076;2023-10-08T12:38:49;15.07;;;6.00;;
37593;SDS011;23441;50.856;6.076;2023-10-08T12:41:22;16.73;;;6.40;;
37593;SDS011;23441;50.856;6.076;2023-10-08T12:43:50;17.63;;;6.30;;
37593;SDS011;23441;50.856;6.076;2023-10-08T12:46:19;18.80;;;6.72;;
37593;SDS011;23441;50.856;6.076;2023-10-08T12:48:52;15.75;;;6.93;;
37593;SDS011;23441;50.856;6.076;2023-10-08T12:51:20;15.35;;;6.50;;
37593;SDS011;23441;50.856;6.076;2023-10-08T12:53:50;18.70;;;6.63;;
37593;SDS011;23441;50.856;6.076;2023-10-08T12:56:23;17.13;;;6.35;;
37593;SDS011;23441;50.856;6.076;2023-10-08T12:58:56;18.48;;;7.03;;
37593;SDS011;23441;50.856;6.076;2023-10-08T13:01:23;15.95;;;6.65;;
37593;SDS011;23441;50.856;6.076;2023-10-08T13:03:48;17.23;;;6.47;;
37593;SDS011;23441;50.856;6.076;2023-10-08T13:06:15;17.48;;;6.50;;
37593;SDS011;23441;50.856;6.076;2023-10-08T13:09:09;13.15;;;7.10;;
37593;SDS011;23441;50.856;6.076;2023-10-08T13:11:37;13.75;;;5.63;;
37593;SDS011;23441;50.856;6.076;2023-10-08T13:14:04;13.95;;;6.15;;
37593;SDS011;23441;50.856;6.076;2023-10-08T13:16:30;14.27;;;5.95;;
37593;SDS011;23441;50.856;6.076;2023-10-08T13:18:56;16.52;;;6.53;;
37593;SDS011;23441;50.856;6.076;2023-10-08T13:21:26;13.02;;;6.78;;
37593;SDS011;23441;50.856;6.076;2023-10-08T13:23:53;12.77;;;6.57;;
37593;SDS011;23441;50.856;6.076;2023-10-08T13:26:24;17.55;;;6.88;;
37593;SDS011;23441;50.856;6.076;2023-10-08T13:28:56;12.60;;;6.00;;
37593;SDS011;23441;50.856;6.076;2023-10-08T13:31:23;10.88;;;5.45;;
37593;SDS011;23441;50.856;6.076;2023-10-08T13:33:50;15.27;;;6.70;;
37593;SDS011;23441;50.856;6.076;2023-10-08T13:36:17;14.38;;;5.50;;
37593;SDS011;23441;50.856;6.076;2023-10-08T13:38:43;16.58;;;5.55;;
37593;SDS011;23441;50.856;6.076;2023-10-08T13:41:11;13.40;;;5.35;;
37593;SDS011;23441;50.856;6.076;2023-10-08T13:43:49;16.42;;;5.38;;
37593;SDS011;23441;50.856;6.076;2023-10-08T13:46:27;18.42;;;6.07;;
37593;SDS011;23441;50.856;6.076;2023-10-08T13:48:52;11.48;;;4.85;;
37593;SDS011;23441;50.856;6.076;2023-10-08T13:51:22;12.18;;;5.45;;
37593;SDS011;23441;50.856;6.076;2023-10-08T13:53:51;12.57;;;6.15;;
37593;SDS011;23441;50.856;6.076;2023-10-08T13:56:18;18.08;;;6.47;;
37593;SDS011;23441;50.856;6.076;2023-10-08T13:58:49;16.17;;;5.75;;
37593;SDS011;23441;50.856;6.076;2023-10-08T14:01:16;11.85;;;6.05;;
37593;SDS011;23441;50.856;6.076;2023-10-08T14:03:48;14.98;;;5.72;;
37593;SDS011;23441;50.856;6.076;2023-10-08T14:06:18;15.15;;;5.85;;
37593;SDS011;23441;50.856;6.076;2023-10-08T14:08:45;12.50;;;5.93;;
37593;SDS011;23441;50.856;6.076;2023-10-08T14:11:16;15.65;;;5.80;;
37593;SDS011;23441;50.856;6.076;2023-10-08T14:13:43;10.23;;;5.25;;
37593;SDS011;23441;50.856;6.076;2023-10-08T14:16:09;14.70;;;5.70;;
37593;SDS011;23441;50.856;6.076;2023-10-08T14:18:36;13.68;;;5.75;;
37593;SDS011;23441;50.856;6.076;2023-10-08T14:21:11;14.45;;;5.03;;
37593;SDS011;23441;50.856;6.076;2023-10-08T14:23:37;13.27;;;5.65;;
37593;SDS011;23441;50.856;6.076;2023-10-08T14:26:06;14.57;;;5.78;;
37593;SDS011;23441;50.856;6.076;2023-10-08T14:28:34;16.33;;;5.68;;
37593;SDS011;23441;50.856;6.076;2023-10-08T14:31:09;19.63;;;5.60;;
37593;SDS011;23441;50.856;6.076;2023-10-08T14:33:40;18.98;;;5.72;;
37593;SDS011;23441;50.856;6.076;2023-10-08T14:36:09;13.82;;;5.45;;
37593;SDS011;23441;50.856;6.076;2023-10-08T14:38:53;13.00;;;5.90;;
37593;SDS011;23441;50.856;6.076;2023-10-08T14:41:38;14.65;;;5.75;;
37593;SDS011;23441;50.856;6.076;2023-10-08T14:44:22;11.23;;;5.18;;
37593;SDS011;23441;50.856;6.076;2023-10-08T14:46:49;11.95;;;4.78;;
37593;SDS011;23441;50.856;6.076;2023-10-08T14:49:15;13.52;;;5.38;;
37593;SDS011;23441;50.856;6.076;2023-10-08T14:51:41;13.98;;;5.00;;
37593;SDS011;23441;50.856;6.076;2023-10-08T14:54:08;16.58;;;5.55;;
37593;SDS011;23441;50.856;6.076;2023-10-08T14:56:35;13.30;;;5.38;;
37593;SDS011;23441;50.856;6.076;2023-10-08T14:59:02;16.25;;;5.15;;
37593;SDS011;23441;50.856;6.076;2023-10-08T15:01:28;13.27;;;5.07;;
37593;SDS011;23441;50.856;6.076;2023-10-08T15:03:58;19.17;;;5.10;;
37593;SDS011;23441;50.856;6.076;2023-10-08T15:06:28;13.63;;;5.35;;
37593;SDS011;23441;50.856;6.076;2023-10-08T15:08:55;13.77;;;5.18;;
37593;SDS011;23441;50.856;6.076;2023-10-08T15:11:22;14.07;;;5.20;;
37593;SDS011;23441;50.856;6.076;2023-10-08T15:13:48;9.80;;;4.72;;
37593;SDS011;23441;50.856;6.076;2023-10-08T15:16:18;15.23;;;5.45;;